sensor_id;sensor_type;location;lat;lon;timestamp;P1;durP1;ratioP1;P2;durP2;ratioP2
48809;SDS011;40070;47.322;18.784;2024-02-21T00:01:45;3.13;;;1.07;;
48809;SDS011;40070;47.322;18.784;2024-02-21T00:03:46;3.24;;;1.17;;
48809;SDS011;40070;47.322;18.784;2024-02-21T00:05:47;1.99;;;0.88;;
48809;SDS011;40070;47.322;18.784;2024-02-21T00:07:48;1.99;;;0.98;;
48809;SDS011;40070;47.322;18.784;2024-02-21T00:09:49;1.63;;;0.78;;
48809;SDS011;40070;47.322;18.784;2024-02-21T00:11:50;1.98;;;0.98;;
48809;SDS011;40070;47.322;18.784;2024-02-21T00:13:54;2.44;;;0.98;;
48809;SDS011;40070;47.322;18.784;2024-02-21T00:15:55;2.89;;;0.98;;
48809;SDS011;40070;47.322;18.784;2024-02-21T00:17:56;1.90;;;0.88;;
48809;SDS011;40070;47.322;18.784;2024-02-21T00:19:57;3.25;;;1.27;;
48809;SDS011;40070;47.322;18.784;2024-02-21T00:21:58;2.26;;;0.88;;
48809;SDS011;40070;47.322;18.784;2024-02-21T00:23:59;2.25;;;0.97;;
48809;SDS011;40070;47.322;18.784;2024-02-21T00:26:00;2.52;;;0.78;;
48809;SDS011;40070;47.322;18.784;2024-02-21T00:28:01;3.07;;;0.98;;
48809;SDS011;40070;47.322;18.784;2024-02-21T00:30:02;2.62;;;0.98;;
48809;SDS011;40070;47.322;18.784;2024-02-21T00:32:03;3.08;;;0.98;;
48809;SDS011;40070;47.322;18.784;2024-02-21T00:34:04;1.45;;;0.78;;
48809;SDS011;40070;47.322;18.784;2024-02-21T00:36:05;2.27;;;0.98;;
48809;SDS011;40070;47.322;18.784;2024-02-21T00:38:06;2.44;;;0.98;;
48809;SDS011;40070;47.322;18.784;2024-02-21T00:40:07;2.44;;;1.27;;
48809;SDS011;40070;47.322;18.784;2024-02-21T00:42:08;2.98;;;1.07;;
48809;SDS011;40070;47.322;18.784;2024-02-21T00:44:09;2.43;;;0.98;;
48809;SDS011;40070;47.322;18.784;2024-02-21T00:46:10;4.20;;;1.26;;
48809;SDS011;40070;47.322;18.784;2024-02-21T00:48:11;2.13;;;1.07;;
48809;SDS011;40070;47.322;18.784;2024-02-21T00:50:12;3.18;;;1.45;;
48809;SDS011;40070;47.322;18.784;2024-02-21T00:52:13;2.83;;;1.16;;
48809;SDS011;40070;47.322;18.784;2024-02-21T00:54:14;1.59;;;0.87;;
48809;SDS011;40070;47.322;18.784;2024-02-21T00:56:15;2.73;;;1.26;;
48809;SDS011;40070;47.322;18.784;2024-02-21T00:58:15;2.11;;;1.06;;
48809;SDS011;40070;47.322;18.784;2024-02-21T01:00:17;3.34;;;1.16;;
48809;SDS011;40070;47.322;18.784;2024-02-21T01:02:17;2.37;;;1.06;;
48809;SDS011;40070;47.322;18.784;2024-02-21T01:04:18;2.03;;;0.77;;
48809;SDS011;40070;47.322;18.784;2024-02-21T01:06:19;3.54;;;1.16;;
48809;SDS011;40070;47.322;18.784;2024-02-21T01:08:20;3.43;;;0.97;;
48809;SDS011;40070;47.322;18.784;2024-02-21T01:10:21;2.38;;;1.06;;
48809;SDS011;40070;47.322;18.784;2024-02-21T01:12:22;3.08;;;1.26;;
48809;SDS011;40070;47.322;18.784;2024-02-21T01:14:24;3.78;;;1.06;;
48809;SDS011;40070;47.322;18.784;2024-02-21T01:16:25;3.60;;;1.45;;
48809;SDS011;40070;47.322;18.784;2024-02-21T01:18:25;3.60;;;1.16;;
48809;SDS011;40070;47.322;18.784;2024-02-21T01:20:26;3.41;;;1.16;;
48809;SDS011;40070;47.322;18.784;2024-02-21T01:22:27;2.55;;;1.06;;
48809;SDS011;40070;47.322;18.784;2024-02-21T01:24:28;2.99;;;1.45;;
48809;SDS011;40070;47.322;18.784;2024-02-21T01:26:29;1.93;;;0.96;;
48809;SDS011;40070;47.322;18.784;2024-02-21T01:28:30;3.60;;;1.25;;
48809;SDS011;40070;47.322;18.784;2024-02-21T01:30:31;2.63;;;1.25;;
48809;SDS011;40070;47.322;18.784;2024-02-21T01:32:32;2.02;;;1.06;;
48809;SDS011;40070;47.322;18.784;2024-02-21T01:34:33;3.23;;;1.16;;
48809;SDS011;40070;47.322;18.784;2024-02-21T01:36:35;4.54;;;1.25;;
48809;SDS011;40070;47.322;18.784;2024-02-21T01:38:36;2.53;;;1.16;;
48809;SDS011;40070;47.322;18.784;2024-02-21T01:40:37;4.10;;;1.06;;
48809;SDS011;40070;47.322;18.784;2024-02-21T01:42:39;2.44;;;1.15;;
48809;SDS011;40070;47.322;18.784;2024-02-21T01:44:39;2.28;;;1.06;;
48809;SDS011;40070;47.322;18.784;2024-02-21T01:46:40;3.43;;;1.06;;
48809;SDS011;40070;47.322;18.784;2024-02-21T01:48:41;2.99;;;0.97;;
48809;SDS011;40070;47.322;18.784;2024-02-21T01:50:43;2.64;;;0.97;;
48809;SDS011;40070;47.322;18.784;2024-02-21T01:52:45;2.28;;;1.06;;
48809;SDS011;40070;47.322;18.784;2024-02-21T01:54:47;3.17;;;1.16;;
48809;SDS011;40070;47.322;18.784;2024-02-21T01:56:48;1.77;;;0.87;;
48809;SDS011;40070;47.322;18.784;2024-02-21T01:58:51;2.56;;;0.97;;
48809;SDS011;40070;47.322;18.784;2024-02-21T02:00:52;2.74;;;1.16;;
48809;SDS011;40070;47.322;18.784;2024-02-21T02:02:53;2.20;;;0.97;;
48809;SDS011;40070;47.322;18.784;2024-02-21T02:04:55;2.64;;;0.87;;
48809;SDS011;40070;47.322;18.784;2024-02-21T02:06:56;2.30;;;1.06;;
48809;SDS011;40070;47.322;18.784;2024-02-21T02:08:57;2.47;;;0.97;;
48809;SDS011;40070;47.322;18.784;2024-02-21T02:10:58;4.39;;;1.64;;
48809;SDS011;40070;47.322;18.784;2024-02-21T02:12:59;5.08;;;2.03;;
48809;SDS011;40070;47.322;18.784;2024-02-21T02:15:00;5.40;;;2.02;;
48809;SDS011;40070;47.322;18.784;2024-02-21T02:17:01;3.24;;;1.25;;
48809;SDS011;40070;47.322;18.784;2024-02-21T02:19:02;2.20;;;0.97;;
48809;SDS011;40070;47.322;18.784;2024-02-21T02:21:04;2.37;;;1.06;;
48809;SDS011;40070;47.322;18.784;2024-02-21T02:23:07;3.60;;;0.97;;
48809;SDS011;40070;47.322;18.784;2024-02-21T02:25:07;1.93;;;0.87;;
48809;SDS011;40070;47.322;18.784;2024-02-21T02:27:08;2.03;;;0.87;;
48809;SDS011;40070;47.322;18.784;2024-02-21T02:29:09;3.96;;;0.97;;
48809;SDS011;40070;47.322;18.784;2024-02-21T02:31:10;2.90;;;0.97;;
48809;SDS011;40070;47.322;18.784;2024-02-21T02:33:15;3.26;;;1.06;;
48809;SDS011;40070;47.322;18.784;2024-02-21T02:35:16;3.54;;;1.26;;
48809;SDS011;40070;47.322;18.784;2024-02-21T02:37:17;3.19;;;0.87;;
48809;SDS011;40070;47.322;18.784;2024-02-21T02:39:18;1.94;;;0.87;;
48809;SDS011;40070;47.322;18.784;2024-02-21T02:41:19;4.07;;;0.97;;
48809;SDS011;40070;47.322;18.784;2024-02-21T02:43:20;2.11;;;0.87;;
48809;SDS011;40070;47.322;18.784;2024-02-21T02:45:21;1.93;;;0.77;;
48809;SDS011;40070;47.322;18.784;2024-02-21T02:47:22;2.47;;;0.97;;
48809;SDS011;40070;47.322;18.784;2024-02-21T02:49:23;3.25;;;1.25;;
48809;SDS011;40070;47.322;18.784;2024-02-21T02:51:24;3.34;;;1.26;;
48809;SDS011;40070;47.322;18.784;2024-02-21T02:53:25;2.47;;;0.97;;
48809;SDS011;40070;47.322;18.784;2024-02-21T02:55:26;3.17;;;0.97;;
48809;SDS011;40070;47.322;18.784;2024-02-21T02:57:27;2.13;;;0.97;;
48809;SDS011;40070;47.322;18.784;2024-02-21T02:59:28;3.72;;;0.87;;
48809;SDS011;40070;47.322;18.784;2024-02-21T03:01:29;2.67;;;0.87;;
48809;SDS011;40070;47.322;18.784;2024-02-21T03:03:30;2.94;;;0.97;;
48809;SDS011;40070;47.322;18.784;2024-02-21T03:05:31;4.28;;;1.26;;
48809;SDS011;40070;47.322;18.784;2024-02-21T03:07:32;3.91;;;1.26;;
48809;SDS011;40070;47.322;18.784;2024-02-21T03:09:33;1.96;;;0.87;;
48809;SDS011;40070;47.322;18.784;2024-02-21T03:11:35;2.78;;;0.88;;
48809;SDS011;40070;47.322;18.784;2024-02-21T03:13:35;3.33;;;1.07;;
48809;SDS011;40070;47.322;18.784;2024-02-21T03:15:36;2.61;;;1.46;;
48809;SDS011;40070;47.322;18.784;2024-02-21T03:17:37;1.89;;;0.97;;
48809;SDS011;40070;47.322;18.784;2024-02-21T03:19:38;1.89;;;0.78;;
48809;SDS011;40070;47.322;18.784;2024-02-21T03:21:39;3.05;;;1.46;;
48809;SDS011;40070;47.322;18.784;2024-02-21T03:23:40;1.79;;;0.78;;
48809;SDS011;40070;47.322;18.784;2024-02-21T03:25:41;5.45;;;1.26;;
48809;SDS011;40070;47.322;18.784;2024-02-21T03:27:42;1.96;;;0.87;;
48809;SDS011;40070;47.322;18.784;2024-02-21T03:29:43;2.60;;;0.97;;
48809;SDS011;40070;47.322;18.784;2024-02-21T03:31:44;2.16;;;0.88;;
48809;SDS011;40070;47.322;18.784;2024-02-21T03:33:45;3.77;;;0.97;;
48809;SDS011;40070;47.322;18.784;2024-02-21T03:35:46;4.21;;;1.17;;
48809;SDS011;40070;47.322;18.784;2024-02-21T03:37:47;3.84;;;1.17;;
48809;SDS011;40070;47.322;18.784;2024-02-21T03:39:48;1.16;;;0.58;;
48809;SDS011;40070;47.322;18.784;2024-02-21T03:41:49;2.50;;;1.17;;
48809;SDS011;40070;47.322;18.784;2024-02-21T03:43:50;3.73;;;1.16;;
48809;SDS011;40070;47.322;18.784;2024-02-21T03:45:51;3.84;;;1.07;;
48809;SDS011;40070;47.322;18.784;2024-02-21T03:47:52;3.31;;;0.97;;
48809;SDS011;40070;47.322;18.784;2024-02-21T03:49:53;1.97;;;0.87;;
48809;SDS011;40070;47.322;18.784;2024-02-21T03:51:54;3.65;;;1.07;;
48809;SDS011;40070;47.322;18.784;2024-02-21T03:53:55;3.04;;;1.46;;
48809;SDS011;40070;47.322;18.784;2024-02-21T03:55:56;2.84;;;1.07;;
48809;SDS011;40070;47.322;18.784;2024-02-21T03:57:57;2.39;;;1.16;;
48809;SDS011;40070;47.322;18.784;2024-02-21T03:59:58;3.11;;;0.97;;
48809;SDS011;40070;47.322;18.784;2024-02-21T04:01:58;2.57;;;1.16;;
48809;SDS011;40070;47.322;18.784;2024-02-21T04:03:59;2.30;;;1.26;;
48809;SDS011;40070;47.322;18.784;2024-02-21T04:06:00;2.48;;;1.16;;
48809;SDS011;40070;47.322;18.784;2024-02-21T04:08:04;3.47;;;1.36;;
48809;SDS011;40070;47.322;18.784;2024-02-21T04:10:03;5.98;;;1.17;;
48809;SDS011;40070;47.322;18.784;2024-02-21T04:12:04;5.14;;;1.45;;
48809;SDS011;40070;47.322;18.784;2024-02-21T04:14:05;3.99;;;1.45;;
48809;SDS011;40070;47.322;18.784;2024-02-21T04:16:06;2.04;;;0.97;;
48809;SDS011;40070;47.322;18.784;2024-02-21T04:18:07;3.72;;;1.36;;
48809;SDS011;40070;47.322;18.784;2024-02-21T04:20:13;4.43;;;1.55;;
48809;SDS011;40070;47.322;18.784;2024-02-21T04:22:09;3.28;;;1.45;;
48809;SDS011;40070;47.322;18.784;2024-02-21T04:24:10;3.36;;;1.36;;
48809;SDS011;40070;47.322;18.784;2024-02-21T04:26:11;2.92;;;0.97;;
48809;SDS011;40070;47.322;18.784;2024-02-21T04:28:13;5.20;;;1.16;;
48809;SDS011;40070;47.322;18.784;2024-02-21T04:30:14;3.97;;;1.16;;
48809;SDS011;40070;47.322;18.784;2024-02-21T04:32:14;5.22;;;1.07;;
48809;SDS011;40070;47.322;18.784;2024-02-21T04:34:15;2.58;;;1.07;;
48809;SDS011;40070;47.322;18.784;2024-02-21T04:36:16;2.13;;;0.87;;
48809;SDS011;40070;47.322;18.784;2024-02-21T04:38:17;3.30;;;1.07;;
48809;SDS011;40070;47.322;18.784;2024-02-21T04:40:19;1.97;;;1.07;;
48809;SDS011;40070;47.322;18.784;2024-02-21T04:42:20;2.50;;;0.87;;
48809;SDS011;40070;47.322;18.784;2024-02-21T04:44:21;3.67;;;1.46;;
48809;SDS011;40070;47.322;18.784;2024-02-21T04:46:22;2.75;;;1.36;;
48809;SDS011;40070;47.322;18.784;2024-02-21T04:48:23;3.01;;;1.07;;
48809;SDS011;40070;47.322;18.784;2024-02-21T04:50:24;5.31;;;1.74;;
48809;SDS011;40070;47.322;18.784;2024-02-21T04:52:25;3.10;;;1.36;;
48809;SDS011;40070;47.322;18.784;2024-02-21T04:54:26;4.60;;;1.26;;
48809;SDS011;40070;47.322;18.784;2024-02-21T04:56:27;1.76;;;0.87;;
48809;SDS011;40070;47.322;18.784;2024-02-21T04:58:28;4.68;;;1.16;;
48809;SDS011;40070;47.322;18.784;2024-02-21T05:00:29;2.57;;;1.16;;
48809;SDS011;40070;47.322;18.784;2024-02-21T05:02:30;2.47;;;1.06;;
48809;SDS011;40070;47.322;18.784;2024-02-21T05:04:31;4.50;;;1.26;;
48809;SDS011;40070;47.322;18.784;2024-02-21T05:06:32;2.83;;;1.45;;
48809;SDS011;40070;47.322;18.784;2024-02-21T05:08:33;3.63;;;1.45;;
48809;SDS011;40070;47.322;18.784;2024-02-21T05:10:34;3.72;;;1.65;;
48809;SDS011;40070;47.322;18.784;2024-02-21T05:12:35;4.69;;;1.65;;
48809;SDS011;40070;47.322;18.784;2024-02-21T05:14:36;4.32;;;1.35;;
48809;SDS011;40070;47.322;18.784;2024-02-21T05:16:38;3.17;;;1.26;;
48809;SDS011;40070;47.322;18.784;2024-02-21T05:18:39;5.75;;;1.26;;
48809;SDS011;40070;47.322;18.784;2024-02-21T05:20:40;2.65;;;1.16;;
48809;SDS011;40070;47.322;18.784;2024-02-21T05:22:41;5.06;;;1.26;;
48809;SDS011;40070;47.322;18.784;2024-02-21T05:24:42;3.92;;;1.55;;
48809;SDS011;40070;47.322;18.784;2024-02-21T05:26:51;3.38;;;1.16;;
48809;SDS011;40070;47.322;18.784;2024-02-21T05:28:51;3.81;;;1.45;;
48809;SDS011;40070;47.322;18.784;2024-02-21T05:30:52;3.56;;;1.17;;
48809;SDS011;40070;47.322;18.784;2024-02-21T05:32:53;2.51;;;1.46;;
48809;SDS011;40070;47.322;18.784;2024-02-21T05:34:54;3.50;;;1.27;;
48809;SDS011;40070;47.322;18.784;2024-02-21T05:36:55;5.28;;;1.36;;
48809;SDS011;40070;47.322;18.784;2024-02-21T05:38:56;5.01;;;1.75;;
48809;SDS011;40070;47.322;18.784;2024-02-21T05:40:57;2.70;;;1.36;;
48809;SDS011;40070;47.322;18.784;2024-02-21T05:42:58;3.70;;;1.46;;
48809;SDS011;40070;47.322;18.784;2024-02-21T05:44:59;3.88;;;1.27;;
48809;SDS011;40070;47.322;18.784;2024-02-21T05:47:00;3.19;;;1.17;;
48809;SDS011;40070;47.322;18.784;2024-02-21T05:49:01;3.27;;;1.17;;
48809;SDS011;40070;47.322;18.784;2024-02-21T05:51:02;2.51;;;1.07;;
48809;SDS011;40070;47.322;18.784;2024-02-21T05:53:03;3.15;;;1.27;;
48809;SDS011;40070;47.322;18.784;2024-02-21T05:55:04;3.42;;;1.27;;
48809;SDS011;40070;47.322;18.784;2024-02-21T05:57:06;3.70;;;1.46;;
48809;SDS011;40070;47.322;18.784;2024-02-21T05:59:06;4.43;;;1.66;;
48809;SDS011;40070;47.322;18.784;2024-02-21T06:01:08;1.90;;;0.88;;
48809;SDS011;40070;47.322;18.784;2024-02-21T06:03:09;3.43;;;0.98;;
48809;SDS011;40070;47.322;18.784;2024-02-21T06:05:10;3.86;;;2.05;;
48809;SDS011;40070;47.322;18.784;2024-02-21T06:07:10;4.93;;;1.27;;
48809;SDS011;40070;47.322;18.784;2024-02-21T06:09:12;5.22;;;2.24;;
48809;SDS011;40070;47.322;18.784;2024-02-21T06:11:13;3.35;;;1.27;;
48809;SDS011;40070;47.322;18.784;2024-02-21T06:13:14;3.34;;;1.56;;
48809;SDS011;40070;47.322;18.784;2024-02-21T06:15:15;3.81;;;1.56;;
48809;SDS011;40070;47.322;18.784;2024-02-21T06:17:16;5.36;;;1.47;;
48809;SDS011;40070;47.322;18.784;2024-02-21T06:19:18;2.55;;;1.27;;
48809;SDS011;40070;47.322;18.784;2024-02-21T06:21:19;4.33;;;1.66;;
48809;SDS011;40070;47.322;18.784;2024-02-21T06:23:19;3.60;;;1.66;;
48809;SDS011;40070;47.322;18.784;2024-02-21T06:25:20;5.66;;;1.46;;
48809;SDS011;40070;47.322;18.784;2024-02-21T06:27:21;7.93;;;1.95;;
48809;SDS011;40070;47.322;18.784;2024-02-21T06:29:22;5.79;;;2.15;;
48809;SDS011;40070;47.322;18.784;2024-02-21T06:31:23;7.40;;;3.42;;
48809;SDS011;40070;47.322;18.784;2024-02-21T06:33:24;19.19;;;5.66;;
48809;SDS011;40070;47.322;18.784;2024-02-21T06:35:25;36.25;;;9.06;;
48809;SDS011;40070;47.322;18.784;2024-02-21T06:37:26;16.89;;;5.26;;
48809;SDS011;40070;47.322;18.784;2024-02-21T06:39:27;56.66;;;17.90;;
48809;SDS011;40070;47.322;18.784;2024-02-21T06:41:28;50.47;;;15.28;;
48809;SDS011;40070;47.322;18.784;2024-02-21T06:43:29;83.39;;;23.74;;
48809;SDS011;40070;47.322;18.784;2024-02-21T06:45:30;77.78;;;24.39;;
48809;SDS011;40070;47.322;18.784;2024-02-21T06:47:31;29.55;;;10.51;;
48809;SDS011;40070;47.322;18.784;2024-02-21T06:49:33;39.04;;;10.71;;
48809;SDS011;40070;47.322;18.784;2024-02-21T06:51:34;14.04;;;4.48;;
48809;SDS011;40070;47.322;18.784;2024-02-21T06:53:35;6.40;;;2.54;;
48809;SDS011;40070;47.322;18.784;2024-02-21T06:55:36;7.18;;;1.96;;
48809;SDS011;40070;47.322;18.784;2024-02-21T06:57:37;5.48;;;1.47;;
48809;SDS011;40070;47.322;18.784;2024-02-21T06:59:38;4.39;;;1.76;;
48809;SDS011;40070;47.322;18.784;2024-02-21T07:01:39;4.13;;;1.77;;
48809;SDS011;40070;47.322;18.784;2024-02-21T07:03:40;4.27;;;1.86;;
48809;SDS011;40070;47.322;18.784;2024-02-21T07:05:41;8.51;;;2.65;;
48809;SDS011;40070;47.322;18.784;2024-02-21T07:07:42;8.11;;;2.64;;
48809;SDS011;40070;47.322;18.784;2024-02-21T07:09:43;7.21;;;2.94;;
48809;SDS011;40070;47.322;18.784;2024-02-21T07:11:44;11.32;;;3.71;;
48809;SDS011;40070;47.322;18.784;2024-02-21T07:13:45;9.31;;;4.30;;
48809;SDS011;40070;47.322;18.784;2024-02-21T07:15:46;12.30;;;4.30;;
48809;SDS011;40070;47.322;18.784;2024-02-21T07:17:47;6.48;;;3.04;;
48809;SDS011;40070;47.322;18.784;2024-02-21T07:19:48;5.08;;;2.25;;
48809;SDS011;40070;47.322;18.784;2024-02-21T07:21:49;6.79;;;2.54;;
48809;SDS011;40070;47.322;18.784;2024-02-21T07:23:50;5.68;;;2.24;;
48809;SDS011;40070;47.322;18.784;2024-02-21T07:25:51;5.12;;;2.14;;
48809;SDS011;40070;47.322;18.784;2024-02-21T07:27:52;4.87;;;2.34;;
48809;SDS011;40070;47.322;18.784;2024-02-21T07:29:53;5.81;;;2.15;;
48809;SDS011;40070;47.322;18.784;2024-02-21T07:31:54;8.37;;;2.74;;
48809;SDS011;40070;47.322;18.784;2024-02-21T07:33:55;5.30;;;2.55;;
48809;SDS011;40070;47.322;18.784;2024-02-21T07:35:56;4.02;;;2.06;;
48809;SDS011;40070;47.322;18.784;2024-02-21T07:37:57;4.41;;;2.06;;
48809;SDS011;40070;47.322;18.784;2024-02-21T07:39:58;3.51;;;1.67;;
48809;SDS011;40070;47.322;18.784;2024-02-21T07:41:59;5.08;;;1.77;;
48809;SDS011;40070;47.322;18.784;2024-02-21T07:44:00;2.86;;;1.38;;
48809;SDS011;40070;47.322;18.784;2024-02-21T07:46:01;4.71;;;1.67;;
48809;SDS011;40070;47.322;18.784;2024-02-21T07:48:02;7.73;;;1.68;;
48809;SDS011;40070;47.322;18.784;2024-02-21T07:50:03;4.85;;;1.38;;
48809;SDS011;40070;47.322;18.784;2024-02-21T07:52:04;4.38;;;1.78;;
48809;SDS011;40070;47.322;18.784;2024-02-21T07:54:06;4.19;;;1.77;;
48809;SDS011;40070;47.322;18.784;2024-02-21T07:56:07;4.29;;;1.78;;
48809;SDS011;40070;47.322;18.784;2024-02-21T07:58:08;4.10;;;1.87;;
48809;SDS011;40070;47.322;18.784;2024-02-21T08:00:09;7.96;;;1.98;;
48809;SDS011;40070;47.322;18.784;2024-02-21T08:02:10;4.60;;;2.08;;
48809;SDS011;40070;47.322;18.784;2024-02-21T08:04:11;5.56;;;1.68;;
48809;SDS011;40070;47.322;18.784;2024-02-21T08:06:12;5.66;;;1.98;;
48809;SDS011;40070;47.322;18.784;2024-02-21T08:08:13;7.09;;;2.58;;
48809;SDS011;40070;47.322;18.784;2024-02-21T08:10:14;5.31;;;1.59;;
48809;SDS011;40070;47.322;18.784;2024-02-21T08:12:15;5.31;;;1.78;;
48809;SDS011;40070;47.322;18.784;2024-02-21T08:14:16;7.87;;;1.98;;
48809;SDS011;40070;47.322;18.784;2024-02-21T08:16:18;4.27;;;1.59;;
48809;SDS011;40070;47.322;18.784;2024-02-21T08:18:19;6.94;;;1.78;;
48809;SDS011;40070;47.322;18.784;2024-02-21T08:20:20;4.65;;;1.69;;
48809;SDS011;40070;47.322;18.784;2024-02-21T08:22:21;5.21;;;1.78;;
48809;SDS011;40070;47.322;18.784;2024-02-21T08:24:22;4.25;;;1.68;;
48809;SDS011;40070;47.322;18.784;2024-02-21T08:26:23;6.77;;;2.27;;
48809;SDS011;40070;47.322;18.784;2024-02-21T08:28:28;5.37;;;1.98;;
48809;SDS011;40070;47.322;18.784;2024-02-21T08:30:29;5.29;;;1.78;;
48809;SDS011;40070;47.322;18.784;2024-02-21T08:32:30;6.42;;;1.88;;
48809;SDS011;40070;47.322;18.784;2024-02-21T08:34:32;6.70;;;1.88;;
48809;SDS011;40070;47.322;18.784;2024-02-21T08:36:34;4.53;;;1.58;;
48809;SDS011;40070;47.322;18.784;2024-02-21T08:38:34;4.08;;;1.59;;
48809;SDS011;40070;47.322;18.784;2024-02-21T08:40:35;5.58;;;1.68;;
48809;SDS011;40070;47.322;18.784;2024-02-21T08:42:38;3.70;;;1.59;;
48809;SDS011;40070;47.322;18.784;2024-02-21T08:44:39;4.07;;;1.49;;
48809;SDS011;40070;47.322;18.784;2024-02-21T08:46:38;5.12;;;2.28;;
48809;SDS011;40070;47.322;18.784;2024-02-21T08:48:39;5.41;;;1.69;;
48809;SDS011;40070;47.322;18.784;2024-02-21T08:50:41;10.09;;;2.18;;
48809;SDS011;40070;47.322;18.784;2024-02-21T08:52:42;4.48;;;1.79;;
48809;SDS011;40070;47.322;18.784;2024-02-21T08:54:43;6.01;;;1.89;;
48809;SDS011;40070;47.322;18.784;2024-02-21T08:56:44;3.83;;;1.49;;
48809;SDS011;40070;47.322;18.784;2024-02-21T08:58:45;7.94;;;2.09;;
48809;SDS011;40070;47.322;18.784;2024-02-21T09:00:46;4.21;;;1.69;;
48809;SDS011;40070;47.322;18.784;2024-02-21T09:02:47;6.90;;;1.89;;
48809;SDS011;40070;47.322;18.784;2024-02-21T09:04:48;6.89;;;2.09;;
48809;SDS011;40070;47.322;18.784;2024-02-21T09:06:49;7.57;;;2.38;;
48809;SDS011;40070;47.322;18.784;2024-02-21T09:08:50;7.86;;;1.89;;
48809;SDS011;40070;47.322;18.784;2024-02-21T09:10:51;5.72;;;2.08;;
48809;SDS011;40070;47.322;18.784;2024-02-21T09:12:52;3.93;;;1.29;;
48809;SDS011;40070;47.322;18.784;2024-02-21T09:14:53;7.31;;;2.19;;
48809;SDS011;40070;47.322;18.784;2024-02-21T09:16:54;6.61;;;1.89;;
48809;SDS011;40070;47.322;18.784;2024-02-21T09:18:55;7.01;;;2.19;;
48809;SDS011;40070;47.322;18.784;2024-02-21T09:20:56;9.80;;;2.29;;
48809;SDS011;40070;47.322;18.784;2024-02-21T09:22:57;6.54;;;1.89;;
48809;SDS011;40070;47.322;18.784;2024-02-21T09:24:58;6.53;;;2.19;;
48809;SDS011;40070;47.322;18.784;2024-02-21T09:26:59;9.32;;;1.79;;
48809;SDS011;40070;47.322;18.784;2024-02-21T09:29:00;5.78;;;1.69;;
48809;SDS011;40070;47.322;18.784;2024-02-21T09:31:01;9.05;;;2.19;;
48809;SDS011;40070;47.322;18.784;2024-02-21T09:33:02;2.89;;;1.29;;
48809;SDS011;40070;47.322;18.784;2024-02-21T09:35:03;6.53;;;2.29;;
48809;SDS011;40070;47.322;18.784;2024-02-21T09:39:06;6.08;;;1.99;;
48809;SDS011;40070;47.322;18.784;2024-02-21T09:41:18;4.75;;;1.69;;
48809;SDS011;40070;47.322;18.784;2024-02-21T09:43:10;5.42;;;2.29;;
48809;SDS011;40070;47.322;18.784;2024-02-21T09:45:21;6.40;;;1.79;;
48809;SDS011;40070;47.322;18.784;2024-02-21T09:47:43;6.59;;;1.69;;
48809;SDS011;40070;47.322;18.784;2024-02-21T09:49:50;6.94;;;1.99;;
48809;SDS011;40070;47.322;18.784;2024-02-21T09:51:52;5.58;;;2.69;;
48809;SDS011;40070;47.322;18.784;2024-02-21T09:53:55;8.28;;;2.19;;
48809;SDS011;40070;47.322;18.784;2024-02-21T09:55:57;6.55;;;2.19;;
48809;SDS011;40070;47.322;18.784;2024-02-21T09:57:58;8.78;;;2.19;;
48809;SDS011;40070;47.322;18.784;2024-02-21T09:59:59;7.71;;;1.99;;
48809;SDS011;40070;47.322;18.784;2024-02-21T10:02:00;6.46;;;2.59;;
48809;SDS011;40070;47.322;18.784;2024-02-21T10:04:01;10.57;;;1.89;;
48809;SDS011;40070;47.322;18.784;2024-02-21T10:06:02;7.29;;;1.79;;
48809;SDS011;40070;47.322;18.784;2024-02-21T10:08:03;7.29;;;1.99;;
48809;SDS011;40070;47.322;18.784;2024-02-21T10:10:04;7.69;;;2.09;;
48809;SDS011;40070;47.322;18.784;2024-02-21T10:12:09;5.27;;;1.70;;
48809;SDS011;40070;47.322;18.784;2024-02-21T10:14:07;6.06;;;1.99;;
48809;SDS011;40070;47.322;18.784;2024-02-21T10:16:07;11.62;;;2.29;;
48809;SDS011;40070;47.322;18.784;2024-02-21T10:18:08;8.30;;;2.39;;
48809;SDS011;40070;47.322;18.784;2024-02-21T10:20:10;11.24;;;2.09;;
48809;SDS011;40070;47.322;18.784;2024-02-21T10:22:10;5.77;;;1.99;;
48809;SDS011;40070;47.322;18.784;2024-02-21T10:24:12;7.55;;;2.30;;
48809;SDS011;40070;47.322;18.784;2024-02-21T10:26:13;6.18;;;2.10;;
48809;SDS011;40070;47.322;18.784;2024-02-21T10:28:15;8.94;;;2.20;;
48809;SDS011;40070;47.322;18.784;2024-02-21T10:30:20;8.16;;;2.70;;
48809;SDS011;40070;47.322;18.784;2024-02-21T10:32:21;4.82;;;2.40;;
48809;SDS011;40070;47.322;18.784;2024-02-21T10:34:29;5.91;;;2.10;;
48809;SDS011;40070;47.322;18.784;2024-02-21T10:36:39;6.01;;;2.00;;
48809;SDS011;40070;47.322;18.784;2024-02-21T10:38:40;7.10;;;2.20;;
48809;SDS011;40070;47.322;18.784;2024-02-21T10:40:41;7.37;;;2.20;;
48809;SDS011;40070;47.322;18.784;2024-02-21T10:42:43;7.40;;;2.00;;
48809;SDS011;40070;47.322;18.784;2024-02-21T10:44:44;5.23;;;1.90;;
48809;SDS011;40070;47.322;18.784;2024-02-21T10:46:49;6.03;;;2.10;;
48809;SDS011;40070;47.322;18.784;2024-02-21T10:49:01;6.13;;;1.70;;
48809;SDS011;40070;47.322;18.784;2024-02-21T10:50:57;5.34;;;2.00;;
48809;SDS011;40070;47.322;18.784;2024-02-21T10:55:31;7.41;;;2.00;;
48809;SDS011;40070;47.322;18.784;2024-02-21T10:57:28;8.31;;;1.50;;
48809;SDS011;40070;47.322;18.784;2024-02-21T10:59:29;4.36;;;1.60;;
48809;SDS011;40070;47.322;18.784;2024-02-21T11:01:31;6.15;;;1.70;;
48809;SDS011;40070;47.322;18.784;2024-02-21T11:03:32;4.77;;;1.80;;
48809;SDS011;40070;47.322;18.784;2024-02-21T11:05:34;7.14;;;1.90;;
48809;SDS011;40070;47.322;18.784;2024-02-21T11:07:37;4.97;;;1.50;;
48809;SDS011;40070;47.322;18.784;2024-02-21T11:09:38;9.35;;;1.90;;
48809;SDS011;40070;47.322;18.784;2024-02-21T11:11:43;5.36;;;1.80;;
48809;SDS011;40070;47.322;18.784;2024-02-21T11:13:41;4.77;;;1.60;;
48809;SDS011;40070;47.322;18.784;2024-02-21T11:15:42;7.25;;;1.70;;
48809;SDS011;40070;47.322;18.784;2024-02-21T11:17:53;6.96;;;2.10;;
48809;SDS011;40070;47.322;18.784;2024-02-21T11:19:52;5.27;;;1.70;;
48809;SDS011;40070;47.322;18.784;2024-02-21T11:22:03;5.97;;;1.70;;
48809;SDS011;40070;47.322;18.784;2024-02-21T11:24:04;7.96;;;1.90;;
48809;SDS011;40070;47.322;18.784;2024-02-21T11:26:08;4.57;;;1.70;;
48809;SDS011;40070;47.322;18.784;2024-02-21T11:28:06;6.76;;;1.70;;
48809;SDS011;40070;47.322;18.784;2024-02-21T11:30:17;8.54;;;1.50;;
48809;SDS011;40070;47.322;18.784;2024-02-21T11:32:18;8.83;;;2.00;;
48809;SDS011;40070;47.322;18.784;2024-02-21T11:34:19;6.45;;;1.80;;
48809;SDS011;40070;47.322;18.784;2024-02-21T11:36:26;5.26;;;1.60;;
48809;SDS011;40070;47.322;18.784;2024-02-21T11:38:22;4.47;;;1.40;;
48809;SDS011;40070;47.322;18.784;2024-02-21T11:40:22;7.64;;;1.30;;
48809;SDS011;40070;47.322;18.784;2024-02-21T11:42:36;7.25;;;2.20;;
48809;SDS011;40070;47.322;18.784;2024-02-21T11:44:37;4.96;;;1.10;;
48809;SDS011;40070;47.322;18.784;2024-02-21T11:46:38;8.64;;;1.50;;
48809;SDS011;40070;47.322;18.784;2024-02-21T11:48:40;4.76;;;1.20;;
48809;SDS011;40070;47.322;18.784;2024-02-21T11:50:52;6.26;;;1.60;;
48809;SDS011;40070;47.322;18.784;2024-02-21T11:52:44;4.27;;;1.20;;
48809;SDS011;40070;47.322;18.784;2024-02-21T11:54:45;3.28;;;1.00;;
48809;SDS011;40070;47.322;18.784;2024-02-21T11:56:46;4.58;;;1.20;;
48809;SDS011;40070;47.322;18.784;2024-02-21T11:58:47;4.67;;;1.00;;
48809;SDS011;40070;47.322;18.784;2024-02-21T12:00:49;5.46;;;1.30;;
48809;SDS011;40070;47.322;18.784;2024-02-21T12:02:50;4.57;;;1.20;;
48809;SDS011;40070;47.322;18.784;2024-02-21T12:04:51;2.98;;;0.90;;